sensor_id;sensor_type;location;lat;lon;timestamp;P1;durP1;ratioP1;P2;durP2;ratioP2
8279;SDS011;8335;42.646;23.380;2023-04-25T00:00:00;5.07;;;4.33;;
8279;SDS011;8335;42.646;23.380;2023-04-25T00:02:27;6.07;;;4.43;;
8279;SDS011;8335;42.646;23.380;2023-04-25T00:04:53;6.33;;;5.00;;
8279;SDS011;8335;42.646;23.380;2023-04-25T00:07:23;5.60;;;4.43;;
8279;SDS011;8335;42.646;23.380;2023-04-25T00:09:52;7.17;;;4.50;;
8279;SDS011;8335;42.646;23.380;2023-04-25T00:12:19;6.07;;;4.77;;
8279;SDS011;8335;42.646;23.380;2023-04-25T00:14:47;5.77;;;4.80;;
8279;SDS011;8335;42.646;23.380;2023-04-25T00:17:14;4.83;;;4.30;;
8279;SDS011;8335;42.646;23.380;2023-04-25T00:19:41;5.13;;;4.57;;
8279;SDS011;8335;42.646;23.380;2023-04-25T00:22:09;5.87;;;4.90;;
8279;SDS011;8335;42.646;23.380;2023-04-25T00:24:37;5.67;;;4.40;;
8279;SDS011;8335;42.646;23.380;2023-04-25T00:27:05;8.30;;;4.90;;
8279;SDS011;8335;42.646;23.380;2023-04-25T00:29:31;7.90;;;5.10;;
8279;SDS011;8335;42.646;23.380;2023-04-25T00:31:59;6.13;;;4.53;;
8279;SDS011;8335;42.646;23.380;2023-04-25T00:34:25;6.33;;;4.97;;
8279;SDS011;8335;42.646;23.380;2023-04-25T00:36:52;5.60;;;4.83;;
8279;SDS011;8335;42.646;23.380;2023-04-25T00:39:19;6.77;;;5.30;;
8279;SDS011;8335;42.646;23.380;2023-04-25T00:41:46;6.33;;;5.27;;
8279;SDS011;8335;42.646;23.380;2023-04-25T00:44:15;8.73;;;5.87;;
8279;SDS011;8335;42.646;23.380;2023-04-25T00:46:43;8.07;;;5.13;;
8279;SDS011;8335;42.646;23.380;2023-04-25T00:49:10;6.97;;;5.40;;
8279;SDS011;8335;42.646;23.380;2023-04-25T00:51:40;7.07;;;5.13;;
8279;SDS011;8335;42.646;23.380;2023-04-25T00:54:09;6.33;;;4.77;;
8279;SDS011;8335;42.646;23.380;2023-04-25T00:56:36;6.23;;;5.13;;
8279;SDS011;8335;42.646;23.380;2023-04-25T00:59:02;6.63;;;5.47;;
8279;SDS011;8335;42.646;23.380;2023-04-25T01:01:31;7.47;;;4.60;;
8279;SDS011;8335;42.646;23.380;2023-04-25T01:03:58;7.50;;;4.70;;
8279;SDS011;8335;42.646;23.380;2023-04-25T01:06:25;7.50;;;5.07;;
8279;SDS011;8335;42.646;23.380;2023-04-25T01:08:52;6.73;;;5.50;;
8279;SDS011;8335;42.646;23.380;2023-04-25T01:11:20;5.47;;;4.60;;
8279;SDS011;8335;42.646;23.380;2023-04-25T01:13:46;6.50;;;4.73;;
8279;SDS011;8335;42.646;23.380;2023-04-25T01:16:13;5.10;;;4.60;;
8279;SDS011;8335;42.646;23.380;2023-04-25T01:18:42;5.70;;;4.83;;
8279;SDS011;8335;42.646;23.380;2023-04-25T01:21:11;7.63;;;4.40;;
8279;SDS011;8335;42.646;23.380;2023-04-25T01:23:39;5.30;;;4.50;;
8279;SDS011;8335;42.646;23.380;2023-04-25T01:26:06;6.53;;;5.10;;
8279;SDS011;8335;42.646;23.380;2023-04-25T01:28:36;6.70;;;5.40;;
8279;SDS011;8335;42.646;23.380;2023-04-25T01:31:04;5.20;;;4.00;;
8279;SDS011;8335;42.646;23.380;2023-04-25T01:33:31;6.27;;;4.70;;
8279;SDS011;8335;42.646;23.380;2023-04-25T01:35:59;6.43;;;4.20;;
8279;SDS011;8335;42.646;23.380;2023-04-25T01:38:27;6.43;;;4.50;;
8279;SDS011;8335;42.646;23.380;2023-04-25T01:40:54;5.60;;;4.27;;
8279;SDS011;8335;42.646;23.380;2023-04-25T01:43:21;5.67;;;4.20;;
8279;SDS011;8335;42.646;23.380;2023-04-25T01:45:49;6.27;;;4.60;;
8279;SDS011;8335;42.646;23.380;2023-04-25T01:48:16;5.67;;;5.00;;
8279;SDS011;8335;42.646;23.380;2023-04-25T01:50:43;6.90;;;4.50;;
8279;SDS011;8335;42.646;23.380;2023-04-25T01:53:11;5.60;;;4.53;;
8279;SDS011;8335;42.646;23.380;2023-04-25T01:55:40;6.40;;;5.40;;
8279;SDS011;8335;42.646;23.380;2023-04-25T01:58:07;7.17;;;4.67;;
8279;SDS011;8335;42.646;23.380;2023-04-25T02:00:37;6.33;;;5.10;;
8279;SDS011;8335;42.646;23.380;2023-04-25T02:03:06;5.87;;;4.80;;
8279;SDS011;8335;42.646;23.380;2023-04-25T02:05:36;6.70;;;5.00;;
8279;SDS011;8335;42.646;23.380;2023-04-25T02:08:04;9.47;;;5.27;;
8279;SDS011;8335;42.646;23.380;2023-04-25T02:10:32;7.10;;;5.87;;
8279;SDS011;8335;42.646;23.380;2023-04-25T02:13:00;5.67;;;5.07;;
8279;SDS011;8335;42.646;23.380;2023-04-25T02:15:27;7.23;;;5.80;;
8279;SDS011;8335;42.646;23.380;2023-04-25T02:17:54;7.27;;;5.40;;
8279;SDS011;8335;42.646;23.380;2023-04-25T02:20:21;7.20;;;6.13;;
8279;SDS011;8335;42.646;23.380;2023-04-25T02:22:48;8.30;;;6.43;;
8279;SDS011;8335;42.646;23.380;2023-04-25T02:25:16;7.07;;;5.97;;
8279;SDS011;8335;42.646;23.380;2023-04-25T02:27:45;7.70;;;5.77;;
8279;SDS011;8335;42.646;23.380;2023-04-25T02:30:13;6.93;;;6.10;;
8279;SDS011;8335;42.646;23.380;2023-04-25T02:32:40;8.00;;;6.83;;
8279;SDS011;8335;42.646;23.380;2023-04-25T02:35:07;7.30;;;6.07;;
8279;SDS011;8335;42.646;23.380;2023-04-25T02:37:36;7.27;;;6.43;;
8279;SDS011;8335;42.646;23.380;2023-04-25T02:40:07;7.63;;;6.17;;
8279;SDS011;8335;42.646;23.380;2023-04-25T02:42:35;7.33;;;5.87;;
8279;SDS011;8335;42.646;23.380;2023-04-25T02:45:02;8.27;;;5.93;;
8279;SDS011;8335;42.646;23.380;2023-04-25T02:47:31;7.87;;;6.10;;
8279;SDS011;8335;42.646;23.380;2023-04-25T02:49:57;9.23;;;6.27;;
8279;SDS011;8335;42.646;23.380;2023-04-25T02:52:24;8.00;;;5.40;;
8279;SDS011;8335;42.646;23.380;2023-04-25T02:54:51;7.27;;;6.10;;
8279;SDS011;8335;42.646;23.380;2023-04-25T02:57:18;8.23;;;5.17;;
8279;SDS011;8335;42.646;23.380;2023-04-25T02:59:44;6.97;;;5.47;;
8279;SDS011;8335;42.646;23.380;2023-04-25T03:02:11;6.83;;;5.63;;
8279;SDS011;8335;42.646;23.380;2023-04-25T03:04:39;8.50;;;6.27;;
8279;SDS011;8335;42.646;23.380;2023-04-25T03:07:06;8.57;;;6.60;;
8279;SDS011;8335;42.646;23.380;2023-04-25T03:09:33;7.97;;;6.87;;
8279;SDS011;8335;42.646;23.380;2023-04-25T03:12:00;8.40;;;6.90;;
8279;SDS011;8335;42.646;23.380;2023-04-25T03:14:27;8.77;;;7.07;;
8279;SDS011;8335;42.646;23.380;2023-04-25T03:16:53;8.20;;;6.87;;
8279;SDS011;8335;42.646;23.380;2023-04-25T03:19:20;9.50;;;6.60;;
8279;SDS011;8335;42.646;23.380;2023-04-25T03:21:48;8.67;;;7.43;;
8279;SDS011;8335;42.646;23.380;2023-04-25T03:24:15;10.80;;;7.13;;
8279;SDS011;8335;42.646;23.380;2023-04-25T03:26:42;8.93;;;7.57;;
8279;SDS011;8335;42.646;23.380;2023-04-25T03:29:09;10.20;;;7.93;;
8279;SDS011;8335;42.646;23.380;2023-04-25T03:31:35;12.27;;;8.37;;
8279;SDS011;8335;42.646;23.380;2023-04-25T03:34:02;10.57;;;8.20;;
8279;SDS011;8335;42.646;23.380;2023-04-25T03:36:29;12.80;;;8.03;;
8279;SDS011;8335;42.646;23.380;2023-04-25T03:38:57;10.80;;;8.07;;
8279;SDS011;8335;42.646;23.380;2023-04-25T03:41:24;10.63;;;7.83;;
8279;SDS011;8335;42.646;23.380;2023-04-25T03:43:51;10.77;;;8.03;;
8279;SDS011;8335;42.646;23.380;2023-04-25T03:46:17;13.73;;;8.43;;
8279;SDS011;8335;42.646;23.380;2023-04-25T03:48:44;11.70;;;8.57;;
8279;SDS011;8335;42.646;23.380;2023-04-25T03:51:11;11.47;;;8.80;;
8279;SDS011;8335;42.646;23.380;2023-04-25T03:53:38;12.13;;;8.80;;
8279;SDS011;8335;42.646;23.380;2023-04-25T03:56:06;13.93;;;7.43;;
8279;SDS011;8335;42.646;23.380;2023-04-25T03:58:33;14.17;;;8.20;;
8279;SDS011;8335;42.646;23.380;2023-04-25T04:01:00;10.17;;;8.17;;
8279;SDS011;8335;42.646;23.380;2023-04-25T04:03:28;12.73;;;9.03;;
8279;SDS011;8335;42.646;23.380;2023-04-25T04:05:54;11.53;;;9.13;;
8279;SDS011;8335;42.646;23.380;2023-04-25T04:08:21;12.77;;;8.63;;
8279;SDS011;8335;42.646;23.380;2023-04-25T04:10:48;11.20;;;8.80;;
8279;SDS011;8335;42.646;23.380;2023-04-25T04:13:16;11.30;;;8.87;;
8279;SDS011;8335;42.646;23.380;2023-04-25T04:15:43;11.00;;;8.53;;
8279;SDS011;8335;42.646;23.380;2023-04-25T04:18:10;11.90;;;9.43;;
8279;SDS011;8335;42.646;23.380;2023-04-25T04:20:36;10.43;;;8.40;;
8279;SDS011;8335;42.646;23.380;2023-04-25T04:23:03;8.73;;;7.57;;
8279;SDS011;8335;42.646;23.380;2023-04-25T04:25:30;8.83;;;7.40;;
8279;SDS011;8335;42.646;23.380;2023-04-25T04:27:57;8.40;;;7.17;;
8279;SDS011;8335;42.646;23.380;2023-04-25T04:30:25;9.47;;;7.50;;
8279;SDS011;8335;42.646;23.380;2023-04-25T04:32:54;9.90;;;8.00;;
8279;SDS011;8335;42.646;23.380;2023-04-25T04:35:21;9.13;;;7.43;;
8279;SDS011;8335;42.646;23.380;2023-04-25T04:37:48;10.80;;;8.53;;
8279;SDS011;8335;42.646;23.380;2023-04-25T04:40:15;11.90;;;9.20;;
8279;SDS011;8335;42.646;23.380;2023-04-25T04:42:44;12.80;;;9.20;;
8279;SDS011;8335;42.646;23.380;2023-04-25T04:45:11;11.07;;;7.97;;
8279;SDS011;8335;42.646;23.380;2023-04-25T04:47:39;10.10;;;8.03;;
8279;SDS011;8335;42.646;23.380;2023-04-25T04:50:07;11.27;;;8.30;;
8279;SDS011;8335;42.646;23.380;2023-04-25T04:52:34;10.83;;;8.30;;
8279;SDS011;8335;42.646;23.380;2023-04-25T04:55:01;11.37;;;8.57;;
8279;SDS011;8335;42.646;23.380;2023-04-25T04:57:28;12.63;;;8.50;;
8279;SDS011;8335;42.646;23.380;2023-04-25T04:59:56;10.47;;;8.40;;
8279;SDS011;8335;42.646;23.380;2023-04-25T05:02:22;11.23;;;8.20;;
8279;SDS011;8335;42.646;23.380;2023-04-25T05:04:51;11.73;;;8.63;;
8279;SDS011;8335;42.646;23.380;2023-04-25T05:07:17;10.53;;;8.70;;
8279;SDS011;8335;42.646;23.380;2023-04-25T05:09:44;9.00;;;7.37;;
8279;SDS011;8335;42.646;23.380;2023-04-25T05:12:11;9.67;;;7.07;;
8279;SDS011;8335;42.646;23.380;2023-04-25T05:14:38;7.77;;;6.37;;
8279;SDS011;8335;42.646;23.380;2023-04-25T05:17:04;9.33;;;6.90;;
8279;SDS011;8335;42.646;23.380;2023-04-25T05:19:33;9.30;;;7.27;;
8279;SDS011;8335;42.646;23.380;2023-04-25T05:22:02;8.87;;;7.23;;
8279;SDS011;8335;42.646;23.380;2023-04-25T05:24:29;9.80;;;8.30;;
8279;SDS011;8335;42.646;23.380;2023-04-25T05:26:56;13.43;;;10.53;;
8279;SDS011;8335;42.646;23.380;2023-04-25T05:29:23;10.13;;;8.20;;
8279;SDS011;8335;42.646;23.380;2023-04-25T05:31:50;9.70;;;7.60;;
8279;SDS011;8335;42.646;23.380;2023-04-25T05:34:18;9.63;;;7.40;;
8279;SDS011;8335;42.646;23.380;2023-04-25T05:36:44;8.93;;;7.07;;
8279;SDS011;8335;42.646;23.380;2023-04-25T05:39:14;9.53;;;7.60;;
8279;SDS011;8335;42.646;23.380;2023-04-25T05:41:41;9.50;;;7.73;;
8279;SDS011;8335;42.646;23.380;2023-04-25T05:44:08;10.13;;;7.50;;
8279;SDS011;8335;42.646;23.380;2023-04-25T05:46:35;8.93;;;6.97;;
8279;SDS011;8335;42.646;23.380;2023-04-25T05:49:02;8.83;;;7.37;;
8279;SDS011;8335;42.646;23.380;2023-04-25T05:51:29;9.47;;;7.57;;
8279;SDS011;8335;42.646;23.380;2023-04-25T05:53:56;11.97;;;8.27;;
8279;SDS011;8335;42.646;23.380;2023-04-25T05:56:24;10.10;;;8.20;;
8279;SDS011;8335;42.646;23.380;2023-04-25T05:58:51;12.30;;;8.17;;
8279;SDS011;8335;42.646;23.380;2023-04-25T06:01:18;14.63;;;8.33;;
8279;SDS011;8335;42.646;23.380;2023-04-25T06:03:45;12.13;;;7.73;;
8279;SDS011;8335;42.646;23.380;2023-04-25T06:06:12;8.87;;;7.00;;
8279;SDS011;8335;42.646;23.380;2023-04-25T06:08:39;12.03;;;7.13;;
8279;SDS011;8335;42.646;23.380;2023-04-25T06:11:06;9.07;;;7.33;;
8279;SDS011;8335;42.646;23.380;2023-04-25T06:13:34;8.57;;;6.57;;
8279;SDS011;8335;42.646;23.380;2023-04-25T06:16:01;8.63;;;6.47;;
8279;SDS011;8335;42.646;23.380;2023-04-25T06:18:27;10.77;;;6.23;;
8279;SDS011;8335;42.646;23.380;2023-04-25T06:20:54;9.50;;;7.30;;
8279;SDS011;8335;42.646;23.380;2023-04-25T06:23:21;9.77;;;7.13;;
8279;SDS011;8335;42.646;23.380;2023-04-25T06:25:48;10.10;;;7.70;;
8279;SDS011;8335;42.646;23.380;2023-04-25T06:28:14;8.63;;;7.07;;
8279;SDS011;8335;42.646;23.380;2023-04-25T06:30:43;8.67;;;6.67;;
8279;SDS011;8335;42.646;23.380;2023-04-25T06:33:10;8.73;;;6.60;;
8279;SDS011;8335;42.646;23.380;2023-04-25T06:35:36;8.90;;;5.87;;
8279;SDS011;8335;42.646;23.380;2023-04-25T06:38:03;11.50;;;6.13;;
8279;SDS011;8335;42.646;23.380;2023-04-25T06:40:34;9.30;;;5.23;;
8279;SDS011;8335;42.646;23.380;2023-04-25T06:43:00;8.60;;;5.80;;
8279;SDS011;8335;42.646;23.380;2023-04-25T06:45:27;6.40;;;5.03;;
8279;SDS011;8335;42.646;23.380;2023-04-25T06:47:55;8.50;;;5.53;;
8279;SDS011;8335;42.646;23.380;2023-04-25T06:50:22;7.40;;;5.57;;
8279;SDS011;8335;42.646;23.380;2023-04-25T06:52:49;7.38;;;5.70;;
8279;SDS011;8335;42.646;23.380;2023-04-25T06:55:15;7.63;;;5.60;;
8279;SDS011;8335;42.646;23.380;2023-04-25T06:57:42;6.30;;;5.10;;
8279;SDS011;8335;42.646;23.380;2023-04-25T07:00:09;8.77;;;5.38;;
8279;SDS011;8335;42.646;23.380;2023-04-25T07:02:37;5.93;;;5.22;;
8279;SDS011;8335;42.646;23.380;2023-04-25T07:05:05;4.18;;;3.78;;
8279;SDS011;8335;42.646;23.380;2023-04-25T07:07:32;5.20;;;4.57;;
8279;SDS011;8335;42.646;23.380;2023-04-25T07:09:59;6.23;;;4.47;;
8279;SDS011;8335;42.646;23.380;2023-04-25T07:12:25;5.65;;;4.93;;
8279;SDS011;8335;42.646;23.380;2023-04-25T07:14:52;6.28;;;5.18;;
8279;SDS011;8335;42.646;23.380;2023-04-25T07:17:19;8.20;;;5.27;;
8279;SDS011;8335;42.646;23.380;2023-04-25T07:19:46;5.60;;;5.00;;
8279;SDS011;8335;42.646;23.380;2023-04-25T07:22:14;6.43;;;5.38;;
8279;SDS011;8335;42.646;23.380;2023-04-25T07:24:41;7.63;;;5.63;;
8279;SDS011;8335;42.646;23.380;2023-04-25T07:27:09;7.20;;;5.32;;
8279;SDS011;8335;42.646;23.380;2023-04-25T07:29:36;7.65;;;5.63;;
8279;SDS011;8335;42.646;23.380;2023-04-25T07:32:03;6.90;;;5.57;;
8279;SDS011;8335;42.646;23.380;2023-04-25T07:34:30;7.53;;;6.33;;
8279;SDS011;8335;42.646;23.380;2023-04-25T07:36:57;10.57;;;5.87;;
8279;SDS011;8335;42.646;23.380;2023-04-25T07:39:26;6.90;;;5.70;;
8279;SDS011;8335;42.646;23.380;2023-04-25T07:41:52;7.93;;;5.47;;
8279;SDS011;8335;42.646;23.380;2023-04-25T07:44:19;11.53;;;5.70;;
8279;SDS011;8335;42.646;23.380;2023-04-25T07:46:46;8.27;;;5.47;;
8279;SDS011;8335;42.646;23.380;2023-04-25T07:49:13;18.40;;;7.00;;
8279;SDS011;8335;42.646;23.380;2023-04-25T07:51:40;12.20;;;6.85;;
8279;SDS011;8335;42.646;23.380;2023-04-25T07:54:08;10.80;;;5.83;;
8279;SDS011;8335;42.646;23.380;2023-04-25T07:56:36;10.70;;;5.50;;
8279;SDS011;8335;42.646;23.380;2023-04-25T07:59:03;9.05;;;5.82;;
8279;SDS011;8335;42.646;23.380;2023-04-25T08:01:30;8.15;;;5.85;;
8279;SDS011;8335;42.646;23.380;2023-04-25T08:03:57;8.80;;;5.75;;
8279;SDS011;8335;42.646;23.380;2023-04-25T08:06:23;8.43;;;5.20;;
8279;SDS011;8335;42.646;23.380;2023-04-25T08:08:50;6.97;;;5.07;;
8279;SDS011;8335;42.646;23.380;2023-04-25T08:11:17;7.00;;;4.90;;
8279;SDS011;8335;42.646;23.380;2023-04-25T08:13:45;9.43;;;5.10;;
8279;SDS011;8335;42.646;23.380;2023-04-25T08:16:12;9.43;;;5.00;;
8279;SDS011;8335;42.646;23.380;2023-04-25T08:18:38;6.57;;;4.80;;
8279;SDS011;8335;42.646;23.380;2023-04-25T08:21:05;7.05;;;4.63;;
8279;SDS011;8335;42.646;23.380;2023-04-25T08:23:33;5.80;;;4.20;;
8279;SDS011;8335;42.646;23.380;2023-04-25T08:26:00;10.60;;;4.30;;
8279;SDS011;8335;42.646;23.380;2023-04-25T08:28:28;7.05;;;3.55;;
8279;SDS011;8335;42.646;23.380;2023-04-25T08:30:56;7.05;;;4.10;;
8279;SDS011;8335;42.646;23.380;2023-04-25T08:33:23;7.85;;;3.42;;
8279;SDS011;8335;42.646;23.380;2023-04-25T08:35:50;7.22;;;3.80;;
8279;SDS011;8335;42.646;23.380;2023-04-25T08:38:16;4.88;;;4.38;;
8279;SDS011;8335;42.646;23.380;2023-04-25T08:40:43;9.82;;;5.10;;
8279;SDS011;8335;42.646;23.380;2023-04-25T08:43:11;8.25;;;4.13;;
8279;SDS011;8335;42.646;23.380;2023-04-25T08:45:40;7.43;;;4.75;;
8279;SDS011;8335;42.646;23.380;2023-04-25T08:48:10;4.80;;;4.30;;
8279;SDS011;8335;42.646;23.380;2023-04-25T08:50:38;6.80;;;3.90;;
8279;SDS011;8335;42.646;23.380;2023-04-25T08:53:06;8.57;;;4.68;;
8279;SDS011;8335;42.646;23.380;2023-04-25T08:55:36;4.65;;;3.67;;
8279;SDS011;8335;42.646;23.380;2023-04-25T08:58:05;5.78;;;2.63;;
8279;SDS011;8335;42.646;23.380;2023-04-25T09:00:32;4.80;;;2.90;;
8279;SDS011;8335;42.646;23.380;2023-04-25T09:02:59;3.70;;;2.65;;
8279;SDS011;8335;42.646;23.380;2023-04-25T09:05:27;7.30;;;3.25;;
8279;SDS011;8335;42.646;23.380;2023-04-25T09:07:54;5.85;;;4.40;;
8279;SDS011;8335;42.646;23.380;2023-04-25T09:10:23;8.10;;;6.28;;
8279;SDS011;8335;42.646;23.380;2023-04-25T09:13:01;7.05;;;6.32;;
8279;SDS011;8335;42.646;23.380;2023-04-25T09:15:29;6.35;;;5.28;;
8279;SDS011;8335;42.646;23.380;2023-04-25T09:17:57;6.00;;;4.68;;
8279;SDS011;8335;42.646;23.380;2023-04-25T09:20:24;12.30;;;5.40;;
8279;SDS011;8335;42.646;23.380;2023-04-25T09:23:02;5.72;;;4.78;;
8279;SDS011;8335;42.646;23.380;2023-04-25T09:25:33;7.00;;;4.85;;
8279;SDS011;8335;42.646;23.380;2023-04-25T09:28:04;6.43;;;5.10;;
8279;SDS011;8335;42.646;23.380;2023-04-25T09:30:32;6.03;;;4.43;;
8279;SDS011;8335;42.646;23.380;2023-04-25T09:33:03;9.23;;;5.18;;
8279;SDS011;8335;42.646;23.380;2023-04-25T09:35:35;6.03;;;4.68;;
8279;SDS011;8335;42.646;23.380;2023-04-25T09:38:08;5.15;;;4.65;;
8279;SDS011;8335;42.646;23.380;2023-04-25T09:40:38;5.70;;;5.03;;
8279;SDS011;8335;42.646;23.380;2023-04-25T09:43:08;6.93;;;4.90;;
8279;SDS011;8335;42.646;23.380;2023-04-25T09:45:40;6.95;;;5.30;;
8279;SDS011;8335;42.646;23.380;2023-04-25T09:48:10;8.57;;;4.88;;
8279;SDS011;8335;42.646;23.380;2023-04-25T09:50:37;5.20;;;4.70;;
8279;SDS011;8335;42.646;23.380;2023-04-25T09:53:05;6.40;;;5.03;;
8279;SDS011;8335;42.646;23.380;2023-04-25T09:55:34;7.80;;;5.43;;
8279;SDS011;8335;42.646;23.380;2023-04-25T09:58:03;8.77;;;5.22;;
8279;SDS011;8335;42.646;23.380;2023-04-25T10:00:32;6.82;;;4.47;;
8279;SDS011;8335;42.646;23.380;2023-04-25T10:02:59;13.05;;;4.82;;
8279;SDS011;8335;42.646;23.380;2023-04-25T10:05:29;7.57;;;5.20;;
8279;SDS011;8335;42.646;23.380;2023-04-25T10:07:58;7.35;;;4.55;;
8279;SDS011;8335;42.646;23.380;2023-04-25T10:10:28;6.10;;;4.45;;
8279;SDS011;8335;42.646;23.380;2023-04-25T10:13:03;17.25;;;11.23;;
8279;SDS011;8335;42.646;23.380;2023-04-25T10:15:31;8.88;;;6.00;;
8279;SDS011;8335;42.646;23.380;2023-04-25T10:18:01;6.20;;;4.50;;
8279;SDS011;8335;42.646;23.380;2023-04-25T10:20:28;3.92;;;3.50;;
8279;SDS011;8335;42.646;23.380;2023-04-25T10:22:57;5.28;;;3.95;;
8279;SDS011;8335;42.646;23.380;2023-04-25T10:25:30;5.00;;;3.78;;
8279;SDS011;8335;42.646;23.380;2023-04-25T10:27:57;8.25;;;5.00;;
8279;SDS011;8335;42.646;23.380;2023-04-25T10:30:27;3.88;;;2.75;;
8279;SDS011;8335;42.646;23.380;2023-04-25T10:32:54;5.78;;;2.30;;
8279;SDS011;8335;42.646;23.380;2023-04-25T10:35:24;4.25;;;3.60;;
8279;SDS011;8335;42.646;23.380;2023-04-25T10:37:59;6.07;;;3.60;;
8279;SDS011;8335;42.646;23.380;2023-04-25T10:40:28;6.25;;;3.88;;
8279;SDS011;8335;42.646;23.380;2023-04-25T10:42:55;6.30;;;3.67;;
8279;SDS011;8335;42.646;23.380;2023-04-25T10:45:53;3.90;;;3.50;;
8279;SDS011;8335;42.646;23.380;2023-04-25T10:48:24;6.22;;;3.72;;
8279;SDS011;8335;42.646;23.380;2023-04-25T10:50:57;7.82;;;3.60;;
8279;SDS011;8335;42.646;23.380;2023-04-25T10:53:33;9.93;;;4.05;;
8279;SDS011;8335;42.646;23.380;2023-04-25T10:56:00;6.18;;;4.10;;
8279;SDS011;8335;42.646;23.380;2023-04-25T10:58:27;4.20;;;3.50;;
8279;SDS011;8335;42.646;23.380;2023-04-25T11:00:55;5.05;;;2.70;;
8279;SDS011;8335;42.646;23.380;2023-04-25T11:03:21;5.97;;;2.92;;
8279;SDS011;8335;42.646;23.380;2023-04-25T11:05:50;3.53;;;2.38;;
8279;SDS011;8335;42.646;23.380;2023-04-25T11:08:19;11.38;;;3.25;;
8279;SDS011;8335;42.646;23.380;2023-04-25T11:11:03;3.70;;;2.40;;
8279;SDS011;8335;42.646;23.380;2023-04-25T11:13:30;4.20;;;2.40;;
8279;SDS011;8335;42.646;23.380;2023-04-25T11:15:58;6.13;;;2.53;;
8279;SDS011;8335;42.646;23.380;2023-04-25T11:18:26;4.78;;;2.20;;
8279;SDS011;8335;42.646;23.380;2023-04-25T11:20:53;3.90;;;2.42;;
8279;SDS011;8335;42.646;23.380;2023-04-25T11:23:19;6.68;;;3.58;;
8279;SDS011;8335;42.646;23.380;2023-04-25T11:25:46;7.13;;;3.35;;
8279;SDS011;8335;42.646;23.380;2023-04-25T11:28:20;3.13;;;2.00;;
8279;SDS011;8335;42.646;23.380;2023-04-25T11:30:47;3.72;;;2.00;;
8279;SDS011;8335;42.646;23.380;2023-04-25T11:33:16;3.60;;;2.20;;
8279;SDS011;8335;42.646;23.380;2023-04-25T11:35:43;3.72;;;2.35;;
8279;SDS011;8335;42.646;23.380;2023-04-25T11:38:10;5.35;;;2.58;;
8279;SDS011;8335;42.646;23.380;2023-04-25T11:40:37;5.50;;;2.35;;
8279;SDS011;8335;42.646;23.380;2023-04-25T11:43:03;4.10;;;2.65;;
8279;SDS011;8335;42.646;23.380;2023-04-25T11:45:30;5.30;;;2.92;;
8279;SDS011;8335;42.646;23.380;2023-04-25T11:47:57;4.72;;;2.50;;
8279;SDS011;8335;42.646;23.380;2023-04-25T11:50:26;4.75;;;3.05;;
8279;SDS011;8335;42.646;23.380;2023-04-25T11:52:55;8.45;;;2.60;;
8279;SDS011;8335;42.646;23.380;2023-04-25T11:55:23;3.65;;;2.55;;
8279;SDS011;8335;42.646;23.380;2023-04-25T11:57:50;4.82;;;2.80;;
8279;SDS011;8335;42.646;23.380;2023-04-25T12:00:17;6.13;;;2.97;;
8279;SDS011;8335;42.646;23.380;2023-04-25T12:02:46;5.95;;;3.13;;
8279;SDS011;8335;42.646;23.380;2023-04-25T12:05:14;5.40;;;2.60;;
8279;SDS011;8335;42.646;23.380;2023-04-25T12:07:43;3.47;;;2.03;;
8279;SDS011;8335;42.646;23.380;2023-04-25T12:10:11;3.00;;;1.47;;
8279;SDS011;8335;42.646;23.380;2023-04-25T12:12:41;3.70;;;1.80;;
8279;SDS011;8335;42.646;23.380;2023-04-25T12:15:08;1.50;;;1.17;;
8279;SDS011;8335;42.646;23.380;2023-04-25T12:17:40;1.43;;;1.10;;
8279;SDS011;8335;42.646;23.380;2023-04-25T12:20:09;1.70;;;1.30;;
8279;SDS011;8335;42.646;23.380;2023-04-25T12:22:37;2.70;;;1.50;;
8279;SDS011;8335;42.646;23.380;2023-04-25T12:25:05;1.90;;;1.50;;
8279;SDS011;8335;42.646;23.380;2023-04-25T12:27:32;1.67;;;1.33;;
8279;SDS011;8335;42.646;23.380;2023-04-25T12:30:01;1.30;;;1.20;;
8279;SDS011;8335;42.646;23.380;2023-04-25T12:32:28;2.27;;;1.10;;
8279;SDS011;8335;42.646;23.380;2023-04-25T12:34:56;1.30;;;1.20;;
8279;SDS011;8335;42.646;23.380;2023-04-25T12:37:22;1.90;;;1.37;;
8279;SDS011;8335;42.646;23.380;2023-04-25T12:39:49;2.40;;;1.53;;
8279;SDS011;8335;42.646;23.380;2023-04-25T12:42:18;2.67;;;1.30;;
8279;SDS011;8335;42.646;23.380;2023-04-25T12:44:44;2.23;;;1.77;;
8279;SDS011;8335;42.646;23.380;2023-04-25T12:47:11;5.47;;;1.93;;
8279;SDS011;8335;42.646;23.380;2023-04-25T12:49:38;3.83;;;1.58;;
8279;SDS011;8335;42.646;23.380;2023-04-25T12:52:05;5.90;;;1.50;;
8279;SDS011;8335;42.646;23.380;2023-04-25T12:54:31;2.80;;;1.50;;
8279;SDS011;8335;42.646;23.380;2023-04-25T12:56:58;1.33;;;1.23;;
8279;SDS011;8335;42.646;23.380;2023-04-25T12:59:27;3.03;;;1.53;;
8279;SDS011;8335;42.646;23.380;2023-04-25T13:01:54;3.93;;;1.70;;
8279;SDS011;8335;42.646;23.380;2023-04-25T13:04:21;2.97;;;1.50;;
8279;SDS011;8335;42.646;23.380;2023-04-25T13:06:48;3.83;;;1.70;;
8279;SDS011;8335;42.646;23.380;2023-04-25T13:09:15;1.90;;;1.53;;
8279;SDS011;8335;42.646;23.380;2023-04-25T13:11:41;2.97;;;1.20;;
8279;SDS011;8335;42.646;23.380;2023-04-25T13:14:08;3.90;;;1.40;;
8279;SDS011;8335;42.646;23.380;2023-04-25T13:16:36;2.60;;;1.30;;
8279;SDS011;8335;42.646;23.380;2023-04-25T13:19:03;3.10;;;1.20;;
8279;SDS011;8335;42.646;23.380;2023-04-25T13:21:30;2.73;;;1.30;;
8279;SDS011;8335;42.646;23.380;2023-04-25T13:23:58;1.90;;;1.50;;
8279;SDS011;8335;42.646;23.380;2023-04-25T13:26:25;5.80;;;1.90;;
8279;SDS011;8335;42.646;23.380;2023-04-25T13:28:52;2.03;;;1.40;;
8279;SDS011;8335;42.646;23.380;2023-04-25T13:31:18;3.33;;;1.70;;
8279;SDS011;8335;42.646;23.380;2023-04-25T13:33:47;2.33;;;1.50;;
8279;SDS011;8335;42.646;23.380;2023-04-25T13:36:14;1.97;;;1.60;;
8279;SDS011;8335;42.646;23.380;2023-04-25T13:38:40;3.57;;;2.07;;
8279;SDS011;8335;42.646;23.380;2023-04-25T13:41:08;3.17;;;1.90;;
8279;SDS011;8335;42.646;23.380;2023-04-25T13:43:36;2.33;;;1.80;;
8279;SDS011;8335;42.646;23.380;2023-04-25T13:46:03;10.33;;;2.30;;
8279;SDS011;8335;42.646;23.380;2023-04-25T13:48:29;3.93;;;2.27;;
8279;SDS011;8335;42.646;23.380;2023-04-25T13:50:57;2.53;;;1.80;;
8279;SDS011;8335;42.646;23.380;2023-04-25T13:53:24;3.80;;;3.20;;
8279;SDS011;8335;42.646;23.380;2023-04-25T13:55:51;2.47;;;1.90;;
8279;SDS011;8335;42.646;23.380;2023-04-25T13:58:18;3.03;;;2.13;;
8279;SDS011;8335;42.646;23.380;2023-04-25T14:00:45;5.57;;;1.90;;
8279;SDS011;8335;42.646;23.380;2023-04-25T14:03:12;3.47;;;1.97;;
8279;SDS011;8335;42.646;23.380;2023-04-25T14:05:39;2.20;;;2.00;;
8279;SDS011;8335;42.646;23.380;2023-04-25T14:08:07;3.20;;;2.57;;
8279;SDS011;8335;42.646;23.380;2023-04-25T14:10:35;2.10;;;1.90;;
8279;SDS011;8335;42.646;23.380;2023-04-25T14:13:03;4.27;;;2.00;;
8279;SDS011;8335;42.646;23.380;2023-04-25T14:15:30;4.10;;;1.80;;
8279;SDS011;8335;42.646;23.380;2023-04-25T14:17:58;1.70;;;1.60;;
8279;SDS011;8335;42.646;23.380;2023-04-25T14:20:25;1.57;;;1.47;;
8279;SDS011;8335;42.646;23.380;2023-04-25T14:22:52;1.43;;;1.30;;
8279;SDS011;8335;42.646;23.380;2023-04-25T14:25:22;1.87;;;1.40;;
8279;SDS011;8335;42.646;23.380;2023-04-25T14:27:50;2.13;;;1.50;;
8279;SDS011;8335;42.646;23.380;2023-04-25T14:30:16;2.00;;;1.40;;
8279;SDS011;8335;42.646;23.380;2023-04-25T14:32:44;1.67;;;1.40;;
8279;SDS011;8335;42.646;23.380;2023-04-25T14:35:11;1.77;;;1.37;;
8279;SDS011;8335;42.646;23.380;2023-04-25T14:37:38;1.60;;;1.50;;
8279;SDS011;8335;42.646;23.380;2023-04-25T14:40:06;1.93;;;1.63;;
8279;SDS011;8335;42.646;23.380;2023-04-25T14:42:36;1.97;;;1.60;;
8279;SDS011;8335;42.646;23.380;2023-04-25T14:45:03;3.47;;;1.60;;
8279;SDS011;8335;42.646;23.380;2023-04-25T14:47:31;3.23;;;1.77;;
8279;SDS011;8335;42.646;23.380;2023-04-25T14:49:58;2.27;;;1.70;;
8279;SDS011;8335;42.646;23.380;2023-04-25T14:52:26;1.70;;;1.60;;
8279;SDS011;8335;42.646;23.380;2023-04-25T14:54:53;2.27;;;1.50;;
8279;SDS011;8335;42.646;23.380;2023-04-25T14:57:20;2.33;;;1.50;;
8279;SDS011;8335;42.646;23.380;2023-04-25T14:59:48;2.10;;;1.60;;
8279;SDS011;8335;42.646;23.380;2023-04-25T15:02:14;1.73;;;1.63;;